METAR Data
IDs: Format: Raw Decoded Include TAF

Data at: 2121 UTC 06 Dec 2019

METAR for:KEDU (Davis/University Arp, CA, US)
Text:KEDU 062115Z AUTO 18009KT 10SM FEW033 BKN060 17/12 A2997 RMK AO1
Temperature: 17.0°C ( 63°F)
Dewpoint: 12.0°C ( 54°F) [RH = 72%]
Pressure (altimeter):29.97 inches Hg (1015.0 mb)
Winds:from the S (180 degrees) at 10 MPH (9 knots; 4.6 m/s)
Visibility:10 or more sm (16+ km)
Ceiling:6000 feet AGL
Clouds: few clouds at 3300 feet AGL, broken clouds at 6000 feet AGL
QC Flag:automated observation with no human augmentation
Text:KEDU 062055Z AUTO 21004KT 10SM SCT060 16/12 A2998 RMK AO1
Temperature: 16.0°C ( 61°F)
Dewpoint: 12.0°C ( 54°F) [RH = 77%]
Pressure (altimeter):29.98 inches Hg (1015.3 mb)
Winds:from the SSW (210 degrees) at 5 MPH (4 knots; 2.1 m/s)
Visibility:10 or more sm (16+ km)
Ceiling:at least 12,000 feet AGL
Clouds: scattered clouds at 6000 feet AGL
QC Flag:automated observation with no human augmentation
Text:KEDU 062035Z AUTO 19005KT 10SM CLR 16/12 A3000 RMK AO1
Temperature: 16.0°C ( 61°F)
Dewpoint: 12.0°C ( 54°F) [RH = 77%]
Pressure (altimeter):30.00 inches Hg (1016.0 mb)
Winds:from the S (190 degrees) at 6 MPH (5 knots; 2.6 m/s)
Visibility:10 or more sm (16+ km)
Ceiling:at least 12,000 feet AGL
Clouds:sky clear below 12,000 feet AGL
QC Flag:automated observation with no human augmentation
Text:KEDU 062015Z AUTO 17006KT 9SM CLR 15/12 A3001 RMK AO1
Temperature: 15.0°C ( 59°F)
Dewpoint: 12.0°C ( 54°F) [RH = 82%]
Pressure (altimeter):30.01 inches Hg (1016.3 mb)
Winds:from the S (170 degrees) at 7 MPH (6 knots; 3.1 m/s)
Visibility: 9 sm ( 14 km)
Ceiling:at least 12,000 feet AGL
Clouds:sky clear below 12,000 feet AGL
QC Flag:automated observation with no human augmentation
Text:KEDU 061955Z AUTO 20003KT 9SM FEW010 14/12 A3002 RMK AO1
Temperature: 14.0°C ( 57°F)
Dewpoint: 12.0°C ( 54°F) [RH = 88%]
Pressure (altimeter):30.02 inches Hg (1016.7 mb)
Winds:from the SSW (200 degrees) at 3 MPH (3 knots; 1.5 m/s)
Visibility: 9 sm ( 14 km)
Ceiling:at least 12,000 feet AGL
Clouds: few clouds at 1000 feet AGL
QC Flag:automated observation with no human augmentation
Text:KEDU 061935Z AUTO 20003KT 9SM FEW010 14/11 A3004 RMK AO1
Temperature: 14.0°C ( 57°F)
Dewpoint: 11.0°C ( 52°F) [RH = 82%]
Pressure (altimeter):30.04 inches Hg (1017.4 mb)
Winds:from the SSW (200 degrees) at 3 MPH (3 knots; 1.5 m/s)
Visibility: 9 sm ( 14 km)
Ceiling:at least 12,000 feet AGL
Clouds: few clouds at 1000 feet AGL
QC Flag:automated observation with no human augmentation
Text:KEDU 061915Z AUTO 24003KT 9SM FEW008 13/11 A3005 RMK AO1
Temperature: 13.0°C ( 55°F)
Dewpoint: 11.0°C ( 52°F) [RH = 88%]
Pressure (altimeter):30.05 inches Hg (1017.7 mb)
Winds:from the WSW (240 degrees) at 3 MPH (3 knots; 1.5 m/s)
Visibility: 9 sm ( 14 km)
Ceiling:at least 12,000 feet AGL
Clouds: few clouds at 800 feet AGL
QC Flag:automated observation with no human augmentation
Text:KEDU 061855Z AUTO 00000KT 9SM BKN008 13/11 A3007 RMK AO1
Temperature: 13.0°C ( 55°F)
Dewpoint: 11.0°C ( 52°F) [RH = 88%]
Pressure (altimeter):30.07 inches Hg (1018.4 mb)
Winds:calm
Visibility: 9 sm ( 14 km)
Ceiling:800 feet AGL
Clouds: broken clouds at 800 feet AGL
QC Flag:automated observation with no human augmentation
Text:KEDU 061835Z AUTO 18004KT 9SM OVC006 12/11 A3008 RMK AO1
Temperature: 12.0°C ( 54°F)
Dewpoint: 11.0°C ( 52°F) [RH = 94%]
Pressure (altimeter):30.08 inches Hg (1018.7 mb)
Winds:from the S (180 degrees) at 5 MPH (4 knots; 2.1 m/s)
Visibility: 9 sm ( 14 km)
Ceiling:600 feet AGL
Clouds: overcast cloud deck at 600 feet AGL
QC Flag:automated observation with no human augmentation
Text:KEDU 061815Z AUTO 17005KT 9SM BKN006 12/10 A3008 RMK AO1
Temperature: 12.0°C ( 54°F)
Dewpoint: 10.0°C ( 50°F) [RH = 88%]
Pressure (altimeter):30.08 inches Hg (1018.7 mb)
Winds:from the S (170 degrees) at 6 MPH (5 knots; 2.6 m/s)
Visibility: 9 sm ( 14 km)
Ceiling:600 feet AGL
Clouds: broken clouds at 600 feet AGL
QC Flag:automated observation with no human augmentation
Text:KEDU 061755Z AUTO 16007KT 8SM FEW003 11/11 A3008 RMK AO1
Temperature: 11.0°C ( 52°F)
Dewpoint: 11.0°C ( 52°F) [RH = 100%]
Pressure (altimeter):30.08 inches Hg (1018.7 mb)
Winds:from the SSE (160 degrees) at 8 MPH (7 knots; 3.6 m/s)
Visibility: 8 sm ( 13 km)
Ceiling:at least 12,000 feet AGL
Clouds: few clouds at 300 feet AGL
QC Flag:automated observation with no human augmentation
Text:KEDU 061735Z AUTO 00000KT 3SM BKN002 10/10 A3008 RMK AO1
Temperature: 10.0°C ( 50°F)
Dewpoint: 10.0°C ( 50°F) [RH = 100%]
Pressure (altimeter):30.08 inches Hg (1018.7 mb)
Winds:calm
Visibility: 3 sm ( 5 km)
Ceiling:200 feet AGL
Clouds: broken clouds at 200 feet AGL
QC Flag:automated observation with no human augmentation
Text:KEDU 061715Z AUTO 13004KT 1/2SM OVC001 10/10 A3008 RMK AO1
Temperature: 10.0°C ( 50°F)
Dewpoint: 10.0°C ( 50°F) [RH = 100%]
Pressure (altimeter):30.08 inches Hg (1018.7 mb)
Winds:from the SE (130 degrees) at 5 MPH (4 knots; 2.1 m/s)
Visibility: 0.50 sm ( 0.80 km)
Ceiling:100 feet AGL
Clouds: overcast cloud deck at 100 feet AGL
QC Flag:automated observation with no human augmentation
Text:KEDU 061655Z AUTO 14005KT 1/2SM OVC001 10/10 A3008 RMK AO1
Temperature: 10.0°C ( 50°F)
Dewpoint: 10.0°C ( 50°F) [RH = 100%]
Pressure (altimeter):30.08 inches Hg (1018.7 mb)
Winds:from the SE (140 degrees) at 6 MPH (5 knots; 2.6 m/s)
Visibility: 0.50 sm ( 0.80 km)
Ceiling:100 feet AGL
Clouds: overcast cloud deck at 100 feet AGL
QC Flag:automated observation with no human augmentation
Text:KEDU 061635Z AUTO 15005KT 1/4SM OVC001 10/10 A3008 RMK AO1
Temperature: 10.0°C ( 50°F)
Dewpoint: 10.0°C ( 50°F) [RH = 100%]
Pressure (altimeter):30.08 inches Hg (1018.7 mb)
Winds:from the SSE (150 degrees) at 6 MPH (5 knots; 2.6 m/s)
Visibility: 0.25 sm ( 0.40 km)
Ceiling:100 feet AGL
Clouds: overcast cloud deck at 100 feet AGL
QC Flag:automated observation with no human augmentation
Text:KEDU 061615Z AUTO 19003KT 1/4SM OVC001 10/10 A3008 RMK AO1
Temperature: 10.0°C ( 50°F)
Dewpoint: 10.0°C ( 50°F) [RH = 100%]
Pressure (altimeter):30.08 inches Hg (1018.7 mb)
Winds:from the S (190 degrees) at 3 MPH (3 knots; 1.5 m/s)
Visibility: 0.25 sm ( 0.40 km)
Ceiling:100 feet AGL
Clouds: overcast cloud deck at 100 feet AGL
QC Flag:automated observation with no human augmentation
Text:KEDU 061555Z AUTO 17006KT 3/4SM OVC002 10/10 A3007 RMK AO1
Temperature: 10.0°C ( 50°F)
Dewpoint: 10.0°C ( 50°F) [RH = 100%]
Pressure (altimeter):30.07 inches Hg (1018.4 mb)
Winds:from the S (170 degrees) at 7 MPH (6 knots; 3.1 m/s)
Visibility: 0.75 sm ( 1.21 km)
Ceiling:200 feet AGL
Clouds: overcast cloud deck at 200 feet AGL
QC Flag:automated observation with no human augmentation
Text:KEDU 061535Z AUTO 00000KT 2SM OVC003 10/10 A3007 RMK AO1
Temperature: 10.0°C ( 50°F)
Dewpoint: 10.0°C ( 50°F) [RH = 100%]
Pressure (altimeter):30.07 inches Hg (1018.4 mb)
Winds:calm
Visibility: 2.00 sm ( 3.22 km)
Ceiling:300 feet AGL
Clouds: overcast cloud deck at 300 feet AGL
QC Flag:automated observation with no human augmentation
Text:KEDU 061515Z AUTO 11003KT 1/2SM OVC002 10/10 A3007 RMK AO1
Temperature: 10.0°C ( 50°F)
Dewpoint: 10.0°C ( 50°F) [RH = 100%]
Pressure (altimeter):30.07 inches Hg (1018.4 mb)
Winds:from the ESE (110 degrees) at 3 MPH (3 knots; 1.5 m/s)
Visibility: 0.50 sm ( 0.80 km)
Ceiling:200 feet AGL
Clouds: overcast cloud deck at 200 feet AGL
QC Flag:automated observation with no human augmentation
Text:KEDU 061455Z AUTO 00000KT 3SM OVC002 10/10 A3007 RMK AO1
Temperature: 10.0°C ( 50°F)
Dewpoint: 10.0°C ( 50°F) [RH = 100%]
Pressure (altimeter):30.07 inches Hg (1018.4 mb)
Winds:calm
Visibility: 3 sm ( 5 km)
Ceiling:200 feet AGL
Clouds: overcast cloud deck at 200 feet AGL
QC Flag:automated observation with no human augmentation
Text:KEDU 061435Z AUTO 00000KT 1 1/4SM OVC004 10/09 A3006 RMK AO1
Temperature: 10.0°C ( 50°F)
Dewpoint: 9.0°C ( 48°F) [RH = 93%]
Pressure (altimeter):30.06 inches Hg (1018.0 mb)
Winds:calm
Visibility: 1.25 sm ( 2.01 km)
Ceiling:400 feet AGL
Clouds: overcast cloud deck at 400 feet AGL
QC Flag:automated observation with no human augmentation
Text:KEDU 061415Z AUTO 00000KT 1/2SM OVC006 09/09 A3006 RMK AO1
Temperature: 9.0°C ( 48°F)
Dewpoint: 9.0°C ( 48°F) [RH = 100%]
Pressure (altimeter):30.06 inches Hg (1018.0 mb)
Winds:calm
Visibility: 0.50 sm ( 0.80 km)
Ceiling:600 feet AGL
Clouds: overcast cloud deck at 600 feet AGL
QC Flag:automated observation with no human augmentation
Text:KEDU 061355Z AUTO 00000KT 1/4SM VV002 09/09 A3006 RMK AO1
Temperature: 9.0°C ( 48°F)
Dewpoint: 9.0°C ( 48°F) [RH = 100%]
Pressure (altimeter):30.06 inches Hg (1018.0 mb)
Winds:calm
Visibility: 0.25 sm ( 0.40 km)
Ceiling:indefinite ceiling with vertical visibility of 200 feet AGL
Clouds:obscured sky
QC Flag:automated observation with no human augmentation
Text:KEDU 061335Z AUTO 00000KT 1/2SM VV005 10/10 A3006 RMK AO1
Temperature: 10.0°C ( 50°F)
Dewpoint: 10.0°C ( 50°F) [RH = 100%]
Pressure (altimeter):30.06 inches Hg (1018.0 mb)
Winds:calm
Visibility: 0.50 sm ( 0.80 km)
Ceiling:indefinite ceiling with vertical visibility of 500 feet AGL
Clouds:obscured sky
QC Flag:automated observation with no human augmentation
Text:KEDU 061315Z AUTO 00000KT 1/2SM VV005 10/10 A3005 RMK AO1
Temperature: 10.0°C ( 50°F)
Dewpoint: 10.0°C ( 50°F) [RH = 100%]
Pressure (altimeter):30.05 inches Hg (1017.7 mb)
Winds:calm
Visibility: 0.50 sm ( 0.80 km)
Ceiling:indefinite ceiling with vertical visibility of 500 feet AGL
Clouds:obscured sky
QC Flag:automated observation with no human augmentation
Text:KEDU 061255Z AUTO 00000KT 2 1/2SM BKN046 10/10 A3006 RMK AO1
Temperature: 10.0°C ( 50°F)
Dewpoint: 10.0°C ( 50°F) [RH = 100%]
Pressure (altimeter):30.06 inches Hg (1018.0 mb)
Winds:calm
Visibility: 2.50 sm ( 4.02 km)
Ceiling:4600 feet AGL
Clouds: broken clouds at 4600 feet AGL
QC Flag:automated observation with no human augmentation
Text:KEDU 061235Z AUTO 00000KT 3SM OVC046 11/10 A3006 RMK AO1
Temperature: 11.0°C ( 52°F)
Dewpoint: 10.0°C ( 50°F) [RH = 94%]
Pressure (altimeter):30.06 inches Hg (1018.0 mb)
Winds:calm
Visibility: 3 sm ( 5 km)
Ceiling:4600 feet AGL
Clouds: overcast cloud deck at 4600 feet AGL
QC Flag:automated observation with no human augmentation
Text:KEDU 061215Z AUTO 00000KT 2SM BKN050 10/10 A3007 RMK AO1
Temperature: 10.0°C ( 50°F)
Dewpoint: 10.0°C ( 50°F) [RH = 100%]
Pressure (altimeter):30.07 inches Hg (1018.4 mb)
Winds:calm
Visibility: 2.00 sm ( 3.22 km)
Ceiling:5000 feet AGL
Clouds: broken clouds at 5000 feet AGL
QC Flag:automated observation with no human augmentation
Text:KEDU 061155Z AUTO 00000KT 3SM CLR 11/11 A3006 RMK AO1
Temperature: 11.0°C ( 52°F)
Dewpoint: 11.0°C ( 52°F) [RH = 100%]
Pressure (altimeter):30.06 inches Hg (1018.0 mb)
Winds:calm
Visibility: 3 sm ( 5 km)
Ceiling:at least 12,000 feet AGL
Clouds:sky clear below 12,000 feet AGL
QC Flag:automated observation with no human augmentation
Text:KEDU 061135Z AUTO 00000KT 3SM CLR 11/11 A3006 RMK AO1
Temperature: 11.0°C ( 52°F)
Dewpoint: 11.0°C ( 52°F) [RH = 100%]
Pressure (altimeter):30.06 inches Hg (1018.0 mb)
Winds:calm
Visibility: 3 sm ( 5 km)
Ceiling:at least 12,000 feet AGL
Clouds:sky clear below 12,000 feet AGL
QC Flag:automated observation with no human augmentation
Text:KEDU 061115Z AUTO 00000KT 5SM FEW050 12/12 A3006 RMK AO1
Temperature: 12.0°C ( 54°F)
Dewpoint: 12.0°C ( 54°F) [RH = 100%]
Pressure (altimeter):30.06 inches Hg (1018.0 mb)
Winds:calm
Visibility: 5 sm ( 8 km)
Ceiling:at least 12,000 feet AGL
Clouds: few clouds at 5000 feet AGL
QC Flag:automated observation with no human augmentation
Text:KEDU 061055Z AUTO 08003KT 3SM BKN050 12/12 A3006 RMK AO1
Temperature: 12.0°C ( 54°F)
Dewpoint: 12.0°C ( 54°F) [RH = 100%]
Pressure (altimeter):30.06 inches Hg (1018.0 mb)
Winds:from the E (80 degrees) at 3 MPH (3 knots; 1.5 m/s)
Visibility: 3 sm ( 5 km)
Ceiling:5000 feet AGL
Clouds: broken clouds at 5000 feet AGL
QC Flag:automated observation with no human augmentation
Text:KEDU 061035Z AUTO 00000KT 4SM OVC050 12/12 A3007 RMK AO1
Temperature: 12.0°C ( 54°F)
Dewpoint: 12.0°C ( 54°F) [RH = 100%]
Pressure (altimeter):30.07 inches Hg (1018.4 mb)
Winds:calm
Visibility: 4 sm ( 6 km)
Ceiling:5000 feet AGL
Clouds: overcast cloud deck at 5000 feet AGL
QC Flag:automated observation with no human augmentation
Text:KEDU 061015Z AUTO 00000KT 5SM OVC050 12/12 A3007 RMK AO1
Temperature: 12.0°C ( 54°F)
Dewpoint: 12.0°C ( 54°F) [RH = 100%]
Pressure (altimeter):30.07 inches Hg (1018.4 mb)
Winds:calm
Visibility: 5 sm ( 8 km)
Ceiling:5000 feet AGL
Clouds: overcast cloud deck at 5000 feet AGL
QC Flag:automated observation with no human augmentation
Text:KEDU 060955Z AUTO 00000KT 4SM OVC050 12/12 A3006 RMK AO1
Temperature: 12.0°C ( 54°F)
Dewpoint: 12.0°C ( 54°F) [RH = 100%]
Pressure (altimeter):30.06 inches Hg (1018.0 mb)
Winds:calm
Visibility: 4 sm ( 6 km)
Ceiling:5000 feet AGL
Clouds: overcast cloud deck at 5000 feet AGL
QC Flag:automated observation with no human augmentation
Text:KEDU 060935Z AUTO 00000KT 4SM OVC050 12/12 A3007 RMK AO1
Temperature: 12.0°C ( 54°F)
Dewpoint: 12.0°C ( 54°F) [RH = 100%]
Pressure (altimeter):30.07 inches Hg (1018.4 mb)
Winds:calm
Visibility: 4 sm ( 6 km)
Ceiling:5000 feet AGL
Clouds: overcast cloud deck at 5000 feet AGL
QC Flag:automated observation with no human augmentation
Text:KEDU 060915Z AUTO 00000KT 4SM OVC050 12/12 A3006 RMK AO1
Temperature: 12.0°C ( 54°F)
Dewpoint: 12.0°C ( 54°F) [RH = 100%]
Pressure (altimeter):30.06 inches Hg (1018.0 mb)
Winds:calm
Visibility: 4 sm ( 6 km)
Ceiling:5000 feet AGL
Clouds: overcast cloud deck at 5000 feet AGL
QC Flag:automated observation with no human augmentation
Text:KEDU 060855Z AUTO 00000KT 5SM FEW019 OVC050 12/12 A3006 RMK AO1
Temperature: 12.0°C ( 54°F)
Dewpoint: 12.0°C ( 54°F) [RH = 100%]
Pressure (altimeter):30.06 inches Hg (1018.0 mb)
Winds:calm
Visibility: 5 sm ( 8 km)
Ceiling:5000 feet AGL
Clouds: few clouds at 1900 feet AGL, overcast cloud deck at 5000 feet AGL
QC Flag:automated observation with no human augmentation
Text:KEDU 060835Z AUTO 00000KT 5SM BKN019 OVC050 12/12 A3006 RMK AO1
Temperature: 12.0°C ( 54°F)
Dewpoint: 12.0°C ( 54°F) [RH = 100%]
Pressure (altimeter):30.06 inches Hg (1018.0 mb)
Winds:calm
Visibility: 5 sm ( 8 km)
Ceiling:1900 feet AGL
Clouds: broken clouds at 1900 feet AGL, overcast cloud deck at 5000 feet AGL
QC Flag:automated observation with no human augmentation
Text:KEDU 060815Z AUTO 00000KT 5SM SCT019 OVC050 12/12 A3005 RMK AO1
Temperature: 12.0°C ( 54°F)
Dewpoint: 12.0°C ( 54°F) [RH = 100%]
Pressure (altimeter):30.05 inches Hg (1017.7 mb)
Winds:calm
Visibility: 5 sm ( 8 km)
Ceiling:5000 feet AGL
Clouds: scattered clouds at 1900 feet AGL, overcast cloud deck at 5000 feet AGL
QC Flag:automated observation with no human augmentation
Text:KEDU 060755Z AUTO 00000KT 4SM OVC050 12/12 A3006 RMK AO1
Temperature: 12.0°C ( 54°F)
Dewpoint: 12.0°C ( 54°F) [RH = 100%]
Pressure (altimeter):30.06 inches Hg (1018.0 mb)
Winds:calm
Visibility: 4 sm ( 6 km)
Ceiling:5000 feet AGL
Clouds: overcast cloud deck at 5000 feet AGL
QC Flag:automated observation with no human augmentation
Text:KEDU 060735Z AUTO 00000KT 5SM FEW005 OVC050 12/12 A3006 RMK AO1
Temperature: 12.0°C ( 54°F)
Dewpoint: 12.0°C ( 54°F) [RH = 100%]
Pressure (altimeter):30.06 inches Hg (1018.0 mb)
Winds:calm
Visibility: 5 sm ( 8 km)
Ceiling:5000 feet AGL
Clouds: few clouds at 500 feet AGL, overcast cloud deck at 5000 feet AGL
QC Flag:automated observation with no human augmentation
Text:KEDU 060715Z AUTO 00000KT 5SM OVC050 13/12 A3006 RMK AO1
Temperature: 13.0°C ( 55°F)
Dewpoint: 12.0°C ( 54°F) [RH = 94%]
Pressure (altimeter):30.06 inches Hg (1018.0 mb)
Winds:calm
Visibility: 5 sm ( 8 km)
Ceiling:5000 feet AGL
Clouds: overcast cloud deck at 5000 feet AGL
QC Flag:automated observation with no human augmentation
Text:KEDU 060655Z AUTO 00000KT 5SM OVC050 13/12 A3005 RMK AO1
Temperature: 13.0°C ( 55°F)
Dewpoint: 12.0°C ( 54°F) [RH = 94%]
Pressure (altimeter):30.05 inches Hg (1017.7 mb)
Winds:calm
Visibility: 5 sm ( 8 km)
Ceiling:5000 feet AGL
Clouds: overcast cloud deck at 5000 feet AGL
QC Flag:automated observation with no human augmentation
Text:KEDU 060635Z AUTO 00000KT 6SM OVC050 13/12 A3005 RMK AO1
Temperature: 13.0°C ( 55°F)
Dewpoint: 12.0°C ( 54°F) [RH = 94%]
Pressure (altimeter):30.05 inches Hg (1017.7 mb)
Winds:calm
Visibility: 6 sm ( 10 km)
Ceiling:5000 feet AGL
Clouds: overcast cloud deck at 5000 feet AGL
QC Flag:automated observation with no human augmentation
Text:KEDU 060615Z AUTO 00000KT 7SM FEW024 OVC050 13/12 A3006 RMK AO1
Temperature: 13.0°C ( 55°F)
Dewpoint: 12.0°C ( 54°F) [RH = 94%]
Pressure (altimeter):30.06 inches Hg (1018.0 mb)
Winds:calm
Visibility: 7 sm ( 11 km)
Ceiling:5000 feet AGL
Clouds: few clouds at 2400 feet AGL, overcast cloud deck at 5000 feet AGL
QC Flag:automated observation with no human augmentation
Text:KEDU 060555Z AUTO 34003KT 7SM SCT024 OVC050 13/12 A3005 RMK AO1
Temperature: 13.0°C ( 55°F)
Dewpoint: 12.0°C ( 54°F) [RH = 94%]
Pressure (altimeter):30.05 inches Hg (1017.7 mb)
Winds:from the NNW (340 degrees) at 3 MPH (3 knots; 1.5 m/s)
Visibility: 7 sm ( 11 km)
Ceiling:5000 feet AGL
Clouds: scattered clouds at 2400 feet AGL, overcast cloud deck at 5000 feet AGL
QC Flag:automated observation with no human augmentation
Text:KEDU 060535Z AUTO 35004KT 8SM BKN024 BKN042 OVC055 13/12 A3006 RMK AO1
Temperature: 13.0°C ( 55°F)
Dewpoint: 12.0°C ( 54°F) [RH = 94%]
Pressure (altimeter):30.06 inches Hg (1018.0 mb)
Winds:from the N (350 degrees) at 5 MPH (4 knots; 2.1 m/s)
Visibility: 8 sm ( 13 km)
Ceiling:2400 feet AGL
Clouds: broken clouds at 2400 feet AGL, broken clouds at 4200 feet AGL, overcast cloud deck at 5500 feet AGL
QC Flag:automated observation with no human augmentation
Text:KEDU 060515Z AUTO 34004KT 8SM BKN026 OVC042 13/12 A3006 RMK AO1
Temperature: 13.0°C ( 55°F)
Dewpoint: 12.0°C ( 54°F) [RH = 94%]
Pressure (altimeter):30.06 inches Hg (1018.0 mb)
Winds:from the NNW (340 degrees) at 5 MPH (4 knots; 2.1 m/s)
Visibility: 8 sm ( 13 km)
Ceiling:2600 feet AGL
Clouds: broken clouds at 2600 feet AGL, overcast cloud deck at 4200 feet AGL
QC Flag:automated observation with no human augmentation
Text:KEDU 060455Z AUTO 32003KT 8SM BKN026 OVC043 13/12 A3006 RMK AO1
Temperature: 13.0°C ( 55°F)
Dewpoint: 12.0°C ( 54°F) [RH = 94%]
Pressure (altimeter):30.06 inches Hg (1018.0 mb)
Winds:from the NW (320 degrees) at 3 MPH (3 knots; 1.5 m/s)
Visibility: 8 sm ( 13 km)
Ceiling:2600 feet AGL
Clouds: broken clouds at 2600 feet AGL, overcast cloud deck at 4300 feet AGL
QC Flag:automated observation with no human augmentation
Text:KEDU 060435Z AUTO 00000KT 9SM BKN026 OVC043 13/12 A3006 RMK AO1
Temperature: 13.0°C ( 55°F)
Dewpoint: 12.0°C ( 54°F) [RH = 94%]
Pressure (altimeter):30.06 inches Hg (1018.0 mb)
Winds:calm
Visibility: 9 sm ( 14 km)
Ceiling:2600 feet AGL
Clouds: broken clouds at 2600 feet AGL, overcast cloud deck at 4300 feet AGL
QC Flag:automated observation with no human augmentation
Text:KEDU 060415Z AUTO 00000KT 10SM SCT028 BKN043 OVC060 13/12 A3006 RMK AO1
Temperature: 13.0°C ( 55°F)
Dewpoint: 12.0°C ( 54°F) [RH = 94%]
Pressure (altimeter):30.06 inches Hg (1018.0 mb)
Winds:calm
Visibility:10 or more sm (16+ km)
Ceiling:4300 feet AGL
Clouds: scattered clouds at 2800 feet AGL, broken clouds at 4300 feet AGL, overcast cloud deck at 6000 feet AGL
QC Flag:automated observation with no human augmentation
Text:KEDU 060355Z AUTO 01003KT 10SM OVC050 13/12 A3007 RMK AO1
Temperature: 13.0°C ( 55°F)
Dewpoint: 12.0°C ( 54°F) [RH = 94%]
Pressure (altimeter):30.07 inches Hg (1018.4 mb)
Winds:from the N (10 degrees) at 3 MPH (3 knots; 1.5 m/s)
Visibility:10 or more sm (16+ km)
Ceiling:5000 feet AGL
Clouds: overcast cloud deck at 5000 feet AGL
QC Flag:automated observation with no human augmentation
Text:KEDU 060335Z AUTO 34003KT 10SM BKN050 13/12 A3007 RMK AO1
Temperature: 13.0°C ( 55°F)
Dewpoint: 12.0°C ( 54°F) [RH = 94%]
Pressure (altimeter):30.07 inches Hg (1018.4 mb)
Winds:from the NNW (340 degrees) at 3 MPH (3 knots; 1.5 m/s)
Visibility:10 or more sm (16+ km)
Ceiling:5000 feet AGL
Clouds: broken clouds at 5000 feet AGL
QC Flag:automated observation with no human augmentation
Text:KEDU 060315Z AUTO 35003KT 10SM FEW047 OVC050 13/12 A3007 RMK AO1
Temperature: 13.0°C ( 55°F)
Dewpoint: 12.0°C ( 54°F) [RH = 94%]
Pressure (altimeter):30.07 inches Hg (1018.4 mb)
Winds:from the N (350 degrees) at 3 MPH (3 knots; 1.5 m/s)
Visibility:10 or more sm (16+ km)
Ceiling:5000 feet AGL
Clouds: few clouds at 4700 feet AGL, overcast cloud deck at 5000 feet AGL
QC Flag:automated observation with no human augmentation
Text:KEDU 060255Z AUTO 00000KT 10SM SCT047 OVC050 13/12 A3007 RMK AO1
Temperature: 13.0°C ( 55°F)
Dewpoint: 12.0°C ( 54°F) [RH = 94%]
Pressure (altimeter):30.07 inches Hg (1018.4 mb)
Winds:calm
Visibility:10 or more sm (16+ km)
Ceiling:5000 feet AGL
Clouds: scattered clouds at 4700 feet AGL, overcast cloud deck at 5000 feet AGL
QC Flag:automated observation with no human augmentation
Text:KEDU 060235Z AUTO 34003KT 10SM OVC050 13/12 A3006 RMK AO1
Temperature: 13.0°C ( 55°F)
Dewpoint: 12.0°C ( 54°F) [RH = 94%]
Pressure (altimeter):30.06 inches Hg (1018.0 mb)
Winds:from the NNW (340 degrees) at 3 MPH (3 knots; 1.5 m/s)
Visibility:10 or more sm (16+ km)
Ceiling:5000 feet AGL
Clouds: overcast cloud deck at 5000 feet AGL
QC Flag:automated observation with no human augmentation
Text:KEDU 060215Z AUTO 00000KT 9SM SCT050 13/11 A3006 RMK AO1
Temperature: 13.0°C ( 55°F)
Dewpoint: 11.0°C ( 52°F) [RH = 88%]
Pressure (altimeter):30.06 inches Hg (1018.0 mb)
Winds:calm
Visibility: 9 sm ( 14 km)
Ceiling:at least 12,000 feet AGL
Clouds: scattered clouds at 5000 feet AGL
QC Flag:automated observation with no human augmentation
Text:KEDU 060155Z AUTO 03003KT 10SM BKN050 13/11 A3006 RMK AO1
Temperature: 13.0°C ( 55°F)
Dewpoint: 11.0°C ( 52°F) [RH = 88%]
Pressure (altimeter):30.06 inches Hg (1018.0 mb)
Winds:from the NNE (30 degrees) at 3 MPH (3 knots; 1.5 m/s)
Visibility:10 or more sm (16+ km)
Ceiling:5000 feet AGL
Clouds: broken clouds at 5000 feet AGL
QC Flag:automated observation with no human augmentation
Text:KEDU 060135Z AUTO 04006KT 10SM FEW044 OVC050 13/12 A3006 RMK AO1
Temperature: 13.0°C ( 55°F)
Dewpoint: 12.0°C ( 54°F) [RH = 94%]
Pressure (altimeter):30.06 inches Hg (1018.0 mb)
Winds:from the NE (40 degrees) at 7 MPH (6 knots; 3.1 m/s)
Visibility:10 or more sm (16+ km)
Ceiling:5000 feet AGL
Clouds: few clouds at 4400 feet AGL, overcast cloud deck at 5000 feet AGL
QC Flag:automated observation with no human augmentation
Text:KEDU 060115Z AUTO 00000KT 10SM OVC050 14/11 A3007 RMK AO1
Temperature: 14.0°C ( 57°F)
Dewpoint: 11.0°C ( 52°F) [RH = 82%]
Pressure (altimeter):30.07 inches Hg (1018.4 mb)
Winds:calm
Visibility:10 or more sm (16+ km)
Ceiling:5000 feet AGL
Clouds: overcast cloud deck at 5000 feet AGL
QC Flag:automated observation with no human augmentation
Text:KEDU 060055Z AUTO 00000KT 10SM OVC050 14/11 A3007 RMK AO1
Temperature: 14.0°C ( 57°F)
Dewpoint: 11.0°C ( 52°F) [RH = 82%]
Pressure (altimeter):30.07 inches Hg (1018.4 mb)
Winds:calm
Visibility:10 or more sm (16+ km)
Ceiling:5000 feet AGL
Clouds: overcast cloud deck at 5000 feet AGL
QC Flag:automated observation with no human augmentation
Text:KEDU 060035Z AUTO 00000KT 10SM OVC050 14/11 A3007 RMK AO1
Temperature: 14.0°C ( 57°F)
Dewpoint: 11.0°C ( 52°F) [RH = 82%]
Pressure (altimeter):30.07 inches Hg (1018.4 mb)
Winds:calm
Visibility:10 or more sm (16+ km)
Ceiling:5000 feet AGL
Clouds: overcast cloud deck at 5000 feet AGL
QC Flag:automated observation with no human augmentation
Text:KEDU 060015Z AUTO 00000KT 10SM OVC046 14/11 A3007 RMK AO1
Temperature: 14.0°C ( 57°F)
Dewpoint: 11.0°C ( 52°F) [RH = 82%]
Pressure (altimeter):30.07 inches Hg (1018.4 mb)
Winds:calm
Visibility:10 or more sm (16+ km)
Ceiling:4600 feet AGL
Clouds: overcast cloud deck at 4600 feet AGL
QC Flag:automated observation with no human augmentation
Text:KEDU 052355Z AUTO 00000KT 10SM OVC044 14/11 A3007 RMK AO1
Temperature: 14.0°C ( 57°F)
Dewpoint: 11.0°C ( 52°F) [RH = 82%]
Pressure (altimeter):30.07 inches Hg (1018.4 mb)
Winds:calm
Visibility:10 or more sm (16+ km)
Ceiling:4400 feet AGL
Clouds: overcast cloud deck at 4400 feet AGL
QC Flag:automated observation with no human augmentation
Text:KEDU 052335Z AUTO 00000KT 10SM OVC042 14/11 A3007 RMK AO1
Temperature: 14.0°C ( 57°F)
Dewpoint: 11.0°C ( 52°F) [RH = 82%]
Pressure (altimeter):30.07 inches Hg (1018.4 mb)
Winds:calm
Visibility:10 or more sm (16+ km)
Ceiling:4200 feet AGL
Clouds: overcast cloud deck at 4200 feet AGL
QC Flag:automated observation with no human augmentation
Text:KEDU 052315Z AUTO 27003KT 10SM OVC040 14/11 A3007 RMK AO1
Temperature: 14.0°C ( 57°F)
Dewpoint: 11.0°C ( 52°F) [RH = 82%]
Pressure (altimeter):30.07 inches Hg (1018.4 mb)
Winds:from the W (270 degrees) at 3 MPH (3 knots; 1.5 m/s)
Visibility:10 or more sm (16+ km)
Ceiling:4000 feet AGL
Clouds: overcast cloud deck at 4000 feet AGL
QC Flag:automated observation with no human augmentation
Text:KEDU 052255Z AUTO 00000KT 10SM OVC038 14/11 A3007 RMK AO1
Temperature: 14.0°C ( 57°F)
Dewpoint: 11.0°C ( 52°F) [RH = 82%]
Pressure (altimeter):30.07 inches Hg (1018.4 mb)
Winds:calm
Visibility:10 or more sm (16+ km)
Ceiling:3800 feet AGL
Clouds: overcast cloud deck at 3800 feet AGL
QC Flag:automated observation with no human augmentation
Text:KEDU 052235Z AUTO 23003KT 10SM OVC038 14/11 A3008 RMK AO1
Temperature: 14.0°C ( 57°F)
Dewpoint: 11.0°C ( 52°F) [RH = 82%]
Pressure (altimeter):30.08 inches Hg (1018.7 mb)
Winds:from the SW (230 degrees) at 3 MPH (3 knots; 1.5 m/s)
Visibility:10 or more sm (16+ km)
Ceiling:3800 feet AGL
Clouds: overcast cloud deck at 3800 feet AGL
QC Flag:automated observation with no human augmentation
Text:KEDU 052215Z AUTO 00000KT 10SM OVC038 14/11 A3008 RMK AO1
Temperature: 14.0°C ( 57°F)
Dewpoint: 11.0°C ( 52°F) [RH = 82%]
Pressure (altimeter):30.08 inches Hg (1018.7 mb)
Winds:calm
Visibility:10 or more sm (16+ km)
Ceiling:3800 feet AGL
Clouds: overcast cloud deck at 3800 feet AGL
QC Flag:automated observation with no human augmentation
Text:KEDU 052155Z AUTO 21003KT 10SM FEW017 SCT022 OVC038 14/11 A3008 RMK AO1
Temperature: 14.0°C ( 57°F)
Dewpoint: 11.0°C ( 52°F) [RH = 82%]
Pressure (altimeter):30.08 inches Hg (1018.7 mb)
Winds:from the SSW (210 degrees) at 3 MPH (3 knots; 1.5 m/s)
Visibility:10 or more sm (16+ km)
Ceiling:3800 feet AGL
Clouds: few clouds at 1700 feet AGL, scattered clouds at 2200 feet AGL, overcast cloud deck at 3800 feet AGL
QC Flag:automated observation with no human augmentation
Text:KEDU 052135Z AUTO 00000KT 10SM BKN019 OVC036 14/11 A3009 RMK AO1
Temperature: 14.0°C ( 57°F)
Dewpoint: 11.0°C ( 52°F) [RH = 82%]
Pressure (altimeter):30.09 inches Hg (1019.0 mb)
Winds:calm
Visibility:10 or more sm (16+ km)
Ceiling:1900 feet AGL
Clouds: broken clouds at 1900 feet AGL, overcast cloud deck at 3600 feet AGL
QC Flag:automated observation with no human augmentation
Text:KEDU 052115Z AUTO 20003KT 10SM OVC019 14/11 A3009 RMK AO1
Temperature: 14.0°C ( 57°F)
Dewpoint: 11.0°C ( 52°F) [RH = 82%]
Pressure (altimeter):30.09 inches Hg (1019.0 mb)
Winds:from the SSW (200 degrees) at 3 MPH (3 knots; 1.5 m/s)
Visibility:10 or more sm (16+ km)
Ceiling:1900 feet AGL
Clouds: overcast cloud deck at 1900 feet AGL
QC Flag:automated observation with no human augmentation
Text:KEDU 052055Z AUTO 00000KT 10SM SCT015 BKN021 BKN100 14/11 A3009 RMK AO1
Temperature: 14.0°C ( 57°F)
Dewpoint: 11.0°C ( 52°F) [RH = 82%]
Pressure (altimeter):30.09 inches Hg (1019.0 mb)
Winds:calm
Visibility:10 or more sm (16+ km)
Ceiling:2100 feet AGL
Clouds: scattered clouds at 1500 feet AGL, broken clouds at 2100 feet AGL, broken clouds at 10000 feet AGL
QC Flag:automated observation with no human augmentation
Text:KEDU 052035Z AUTO 19004KT 10SM SCT013 BKN080 BKN110 14/11 A3010 RMK AO1
Temperature: 14.0°C ( 57°F)
Dewpoint: 11.0°C ( 52°F) [RH = 82%]
Pressure (altimeter):30.10 inches Hg (1019.4 mb)
Winds:from the S (190 degrees) at 5 MPH (4 knots; 2.1 m/s)
Visibility:10 or more sm (16+ km)
Ceiling:8000 feet AGL
Clouds: scattered clouds at 1300 feet AGL, broken clouds at 8000 feet AGL, broken clouds at 11000 feet AGL
QC Flag:automated observation with no human augmentation
Text:KEDU 052015Z AUTO 18004KT 10SM SCT011 SCT090 BKN110 14/11 A3011 RMK AO1
Temperature: 14.0°C ( 57°F)
Dewpoint: 11.0°C ( 52°F) [RH = 82%]
Pressure (altimeter):30.11 inches Hg (1019.7 mb)
Winds:from the S (180 degrees) at 5 MPH (4 knots; 2.1 m/s)
Visibility:10 or more sm (16+ km)
Ceiling:11000 feet AGL
Clouds: scattered clouds at 1100 feet AGL, scattered clouds at 9000 feet AGL, broken clouds at 11000 feet AGL
QC Flag:automated observation with no human augmentation
Text:KEDU 051955Z AUTO 16004KT 8SM BKN011 BKN019 BKN110 14/12 A3011 RMK AO1
Temperature: 14.0°C ( 57°F)
Dewpoint: 12.0°C ( 54°F) [RH = 88%]
Pressure (altimeter):30.11 inches Hg (1019.7 mb)
Winds:from the SSE (160 degrees) at 5 MPH (4 knots; 2.1 m/s)
Visibility: 8 sm ( 13 km)
Ceiling:1100 feet AGL
Clouds: broken clouds at 1100 feet AGL, broken clouds at 1900 feet AGL, broken clouds at 11000 feet AGL
QC Flag:automated observation with no human augmentation
Text:KEDU 051935Z AUTO 13003KT 8SM SCT008 OVC017 13/12 A3012 RMK AO1
Temperature: 13.0°C ( 55°F)
Dewpoint: 12.0°C ( 54°F) [RH = 94%]
Pressure (altimeter):30.12 inches Hg (1020.1 mb)
Winds:from the SE (130 degrees) at 3 MPH (3 knots; 1.5 m/s)
Visibility: 8 sm ( 13 km)
Ceiling:1700 feet AGL
Clouds: scattered clouds at 800 feet AGL, overcast cloud deck at 1700 feet AGL
QC Flag:automated observation with no human augmentation
Text:KEDU 051915Z AUTO 11003KT 7SM BKN008 OVC019 13/12 A3012 RMK AO1
Temperature: 13.0°C ( 55°F)
Dewpoint: 12.0°C ( 54°F) [RH = 94%]
Pressure (altimeter):30.12 inches Hg (1020.1 mb)
Winds:from the ESE (110 degrees) at 3 MPH (3 knots; 1.5 m/s)
Visibility: 7 sm ( 11 km)
Ceiling:800 feet AGL
Clouds: broken clouds at 800 feet AGL, overcast cloud deck at 1900 feet AGL
QC Flag:automated observation with no human augmentation
Text:KEDU 051855Z AUTO 13004KT 9SM SCT006 OVC019 13/12 A3013 RMK AO1
Temperature: 13.0°C ( 55°F)
Dewpoint: 12.0°C ( 54°F) [RH = 94%]
Pressure (altimeter):30.13 inches Hg (1020.4 mb)
Winds:from the SE (130 degrees) at 5 MPH (4 knots; 2.1 m/s)
Visibility: 9 sm ( 14 km)
Ceiling:1900 feet AGL
Clouds: scattered clouds at 600 feet AGL, overcast cloud deck at 1900 feet AGL
QC Flag:automated observation with no human augmentation
Text:KEDU 051835Z AUTO 05003KT 7SM SCT006 OVC019 13/12 A3013 RMK AO1
Temperature: 13.0°C ( 55°F)
Dewpoint: 12.0°C ( 54°F) [RH = 94%]
Pressure (altimeter):30.13 inches Hg (1020.4 mb)
Winds:from the NE (50 degrees) at 3 MPH (3 knots; 1.5 m/s)
Visibility: 7 sm ( 11 km)
Ceiling:1900 feet AGL
Clouds: scattered clouds at 600 feet AGL, overcast cloud deck at 1900 feet AGL
QC Flag:automated observation with no human augmentation
Text:KEDU 051815Z AUTO 05005KT 5SM SCT006 OVC021 13/12 A3013 RMK AO1
Temperature: 13.0°C ( 55°F)
Dewpoint: 12.0°C ( 54°F) [RH = 94%]
Pressure (altimeter):30.13 inches Hg (1020.4 mb)
Winds:from the NE (50 degrees) at 6 MPH (5 knots; 2.6 m/s)
Visibility: 5 sm ( 8 km)
Ceiling:2100 feet AGL
Clouds: scattered clouds at 600 feet AGL, overcast cloud deck at 2100 feet AGL
QC Flag:automated observation with no human augmentation
Text:KEDU 051755Z AUTO 05005KT 6SM BKN006 OVC023 13/12 A3013 RMK AO1
Temperature: 13.0°C ( 55°F)
Dewpoint: 12.0°C ( 54°F) [RH = 94%]
Pressure (altimeter):30.13 inches Hg (1020.4 mb)
Winds:from the NE (50 degrees) at 6 MPH (5 knots; 2.6 m/s)
Visibility: 6 sm ( 10 km)
Ceiling:600 feet AGL
Clouds: broken clouds at 600 feet AGL, overcast cloud deck at 2300 feet AGL
QC Flag:automated observation with no human augmentation
Text:KEDU 051735Z AUTO 05004KT 4SM BKN004 BKN008 OVC021 12/12 A3013 RMK AO1
Temperature: 12.0°C ( 54°F)
Dewpoint: 12.0°C ( 54°F) [RH = 100%]
Pressure (altimeter):30.13 inches Hg (1020.4 mb)
Winds:from the NE (50 degrees) at 5 MPH (4 knots; 2.1 m/s)
Visibility: 4 sm ( 6 km)
Ceiling:400 feet AGL
Clouds: broken clouds at 400 feet AGL, broken clouds at 800 feet AGL, overcast cloud deck at 2100 feet AGL
QC Flag:automated observation with no human augmentation
Text:KEDU 051715Z AUTO 01003KT 4SM OVC004 12/12 A3013 RMK AO1
Temperature: 12.0°C ( 54°F)
Dewpoint: 12.0°C ( 54°F) [RH = 100%]
Pressure (altimeter):30.13 inches Hg (1020.4 mb)
Winds:from the N (10 degrees) at 3 MPH (3 knots; 1.5 m/s)
Visibility: 4 sm ( 6 km)
Ceiling:400 feet AGL
Clouds: overcast cloud deck at 400 feet AGL
QC Flag:automated observation with no human augmentation
Text:KEDU 051655Z AUTO 00000KT 4SM OVC004 12/12 A3012 RMK AO1
Temperature: 12.0°C ( 54°F)
Dewpoint: 12.0°C ( 54°F) [RH = 100%]
Pressure (altimeter):30.12 inches Hg (1020.1 mb)
Winds:calm
Visibility: 4 sm ( 6 km)
Ceiling:400 feet AGL
Clouds: overcast cloud deck at 400 feet AGL
QC Flag:automated observation with no human augmentation
Text:KEDU 051615Z AUTO 00000KT 4SM BKN003 OVC022 12/12 A3010 RMK AO1
Temperature: 12.0°C ( 54°F)
Dewpoint: 12.0°C ( 54°F) [RH = 100%]
Pressure (altimeter):30.10 inches Hg (1019.4 mb)
Winds:calm
Visibility: 4 sm ( 6 km)
Ceiling:300 feet AGL
Clouds: broken clouds at 300 feet AGL, overcast cloud deck at 2200 feet AGL
QC Flag:automated observation with no human augmentation
Text:KEDU 051555Z AUTO 02004KT 4SM BKN003 OVC023 12/11 A3009 RMK AO1
Temperature: 12.0°C ( 54°F)
Dewpoint: 11.0°C ( 52°F) [RH = 94%]
Pressure (altimeter):30.09 inches Hg (1019.0 mb)
Winds:from the NNE (20 degrees) at 5 MPH (4 knots; 2.1 m/s)
Visibility: 4 sm ( 6 km)
Ceiling:300 feet AGL
Clouds: broken clouds at 300 feet AGL, overcast cloud deck at 2300 feet AGL
QC Flag:automated observation with no human augmentation
Text:KEDU 051535Z AUTO 01003KT 3SM SCT002 BKN018 OVC023 12/11 A3008 RMK AO1
Temperature: 12.0°C ( 54°F)
Dewpoint: 11.0°C ( 52°F) [RH = 94%]
Pressure (altimeter):30.08 inches Hg (1018.7 mb)
Winds:from the N (10 degrees) at 3 MPH (3 knots; 1.5 m/s)
Visibility: 3 sm ( 5 km)
Ceiling:1800 feet AGL
Clouds: scattered clouds at 200 feet AGL, broken clouds at 1800 feet AGL, overcast cloud deck at 2300 feet AGL
QC Flag:automated observation with no human augmentation
Text:KEDU 051515Z AUTO 02003KT 3SM OVC015 12/12 A3008 RMK AO1
Temperature: 12.0°C ( 54°F)
Dewpoint: 12.0°C ( 54°F) [RH = 100%]
Pressure (altimeter):30.08 inches Hg (1018.7 mb)
Winds:from the NNE (20 degrees) at 3 MPH (3 knots; 1.5 m/s)
Visibility: 3 sm ( 5 km)
Ceiling:1500 feet AGL
Clouds: overcast cloud deck at 1500 feet AGL
QC Flag:automated observation with no human augmentation
Text:KEDU 051455Z AUTO 00000KT 5SM BKN017 OVC021 12/12 A3007 RMK AO1
Temperature: 12.0°C ( 54°F)
Dewpoint: 12.0°C ( 54°F) [RH = 100%]
Pressure (altimeter):30.07 inches Hg (1018.4 mb)
Winds:calm
Visibility: 5 sm ( 8 km)
Ceiling:1700 feet AGL
Clouds: broken clouds at 1700 feet AGL, overcast cloud deck at 2100 feet AGL
QC Flag:automated observation with no human augmentation
Text:KEDU 051435Z AUTO 35003KT 4SM OVC017 12/11 A3007 RMK AO1
Temperature: 12.0°C ( 54°F)
Dewpoint: 11.0°C ( 52°F) [RH = 94%]
Pressure (altimeter):30.07 inches Hg (1018.4 mb)
Winds:from the N (350 degrees) at 3 MPH (3 knots; 1.5 m/s)
Visibility: 4 sm ( 6 km)
Ceiling:1700 feet AGL
Clouds: overcast cloud deck at 1700 feet AGL
QC Flag:automated observation with no human augmentation
Text:KEDU 051415Z AUTO 00000KT 4SM OVC015 12/12 A3006 RMK AO1
Temperature: 12.0°C ( 54°F)
Dewpoint: 12.0°C ( 54°F) [RH = 100%]
Pressure (altimeter):30.06 inches Hg (1018.0 mb)
Winds:calm
Visibility: 4 sm ( 6 km)
Ceiling:1500 feet AGL
Clouds: overcast cloud deck at 1500 feet AGL
QC Flag:automated observation with no human augmentation
Text:KEDU 051355Z AUTO 36004KT 4SM FEW004 OVC015 12/12 A3005 RMK AO1
Temperature: 12.0°C ( 54°F)
Dewpoint: 12.0°C ( 54°F) [RH = 100%]
Pressure (altimeter):30.05 inches Hg (1017.7 mb)
Winds:from the N (360 degrees) at 5 MPH (4 knots; 2.1 m/s)
Visibility: 4 sm ( 6 km)
Ceiling:1500 feet AGL
Clouds: few clouds at 400 feet AGL, overcast cloud deck at 1500 feet AGL
QC Flag:automated observation with no human augmentation
Text:KEDU 051335Z AUTO 04004KT 4SM BKN005 OVC015 12/11 A3005 RMK AO1
Temperature: 12.0°C ( 54°F)
Dewpoint: 11.0°C ( 52°F) [RH = 94%]
Pressure (altimeter):30.05 inches Hg (1017.7 mb)
Winds:from the NE (40 degrees) at 5 MPH (4 knots; 2.1 m/s)
Visibility: 4 sm ( 6 km)
Ceiling:500 feet AGL
Clouds: broken clouds at 500 feet AGL, overcast cloud deck at 1500 feet AGL
QC Flag:automated observation with no human augmentation
Text:KEDU 051315Z AUTO 01003KT 4SM OVC005 12/12 A3005 RMK AO1
Temperature: 12.0°C ( 54°F)
Dewpoint: 12.0°C ( 54°F) [RH = 100%]
Pressure (altimeter):30.05 inches Hg (1017.7 mb)
Winds:from the N (10 degrees) at 3 MPH (3 knots; 1.5 m/s)
Visibility: 4 sm ( 6 km)
Ceiling:500 feet AGL
Clouds: overcast cloud deck at 500 feet AGL
QC Flag:automated observation with no human augmentation
Text:KEDU 051255Z AUTO 00000KT 3SM OVC005 12/12 A3004 RMK AO1
Temperature: 12.0°C ( 54°F)
Dewpoint: 12.0°C ( 54°F) [RH = 100%]
Pressure (altimeter):30.04 inches Hg (1017.4 mb)
Winds:calm
Visibility: 3 sm ( 5 km)
Ceiling:500 feet AGL
Clouds: overcast cloud deck at 500 feet AGL
QC Flag:automated observation with no human augmentation
Text:KEDU 051235Z AUTO 01003KT 3SM OVC005 12/12 A3004 RMK AO1
Temperature: 12.0°C ( 54°F)
Dewpoint: 12.0°C ( 54°F) [RH = 100%]
Pressure (altimeter):30.04 inches Hg (1017.4 mb)
Winds:from the N (10 degrees) at 3 MPH (3 knots; 1.5 m/s)
Visibility: 3 sm ( 5 km)
Ceiling:500 feet AGL
Clouds: overcast cloud deck at 500 feet AGL
QC Flag:automated observation with no human augmentation
Text:KEDU 051215Z AUTO 35003KT 3SM OVC005 12/11 A3003 RMK AO1
Temperature: 12.0°C ( 54°F)
Dewpoint: 11.0°C ( 52°F) [RH = 94%]
Pressure (altimeter):30.03 inches Hg (1017.0 mb)
Winds:from the N (350 degrees) at 3 MPH (3 knots; 1.5 m/s)
Visibility: 3 sm ( 5 km)
Ceiling:500 feet AGL
Clouds: overcast cloud deck at 500 feet AGL
QC Flag:automated observation with no human augmentation
Text:KEDU 051155Z AUTO 04003KT 3SM OVC005 12/11 A3003 RMK AO1
Temperature: 12.0°C ( 54°F)
Dewpoint: 11.0°C ( 52°F) [RH = 94%]
Pressure (altimeter):30.03 inches Hg (1017.0 mb)
Winds:from the NE (40 degrees) at 3 MPH (3 knots; 1.5 m/s)
Visibility: 3 sm ( 5 km)
Ceiling:500 feet AGL
Clouds: overcast cloud deck at 500 feet AGL
QC Flag:automated observation with no human augmentation
Text:KEDU 051135Z AUTO 00000KT 3SM OVC005 11/11 A3004 RMK AO1
Temperature: 11.0°C ( 52°F)
Dewpoint: 11.0°C ( 52°F) [RH = 100%]
Pressure (altimeter):30.04 inches Hg (1017.4 mb)
Winds:calm
Visibility: 3 sm ( 5 km)
Ceiling:500 feet AGL
Clouds: overcast cloud deck at 500 feet AGL
QC Flag:automated observation with no human augmentation
Text:KEDU 051115Z AUTO 00000KT 3SM OVC005 11/11 A3003 RMK AO1
Temperature: 11.0°C ( 52°F)
Dewpoint: 11.0°C ( 52°F) [RH = 100%]
Pressure (altimeter):30.03 inches Hg (1017.0 mb)
Winds:calm
Visibility: 3 sm ( 5 km)
Ceiling:500 feet AGL
Clouds: overcast cloud deck at 500 feet AGL
QC Flag:automated observation with no human augmentation
Text:KEDU 051055Z AUTO 35003KT 3SM OVC005 11/11 A3002 RMK AO1
Temperature: 11.0°C ( 52°F)
Dewpoint: 11.0°C ( 52°F) [RH = 100%]
Pressure (altimeter):30.02 inches Hg (1016.7 mb)
Winds:from the N (350 degrees) at 3 MPH (3 knots; 1.5 m/s)
Visibility: 3 sm ( 5 km)
Ceiling:500 feet AGL
Clouds: overcast cloud deck at 500 feet AGL
QC Flag:automated observation with no human augmentation
Text:KEDU 051035Z AUTO 34004KT 3SM OVC005 12/11 A3002 RMK AO1
Temperature: 12.0°C ( 54°F)
Dewpoint: 11.0°C ( 52°F) [RH = 94%]
Pressure (altimeter):30.02 inches Hg (1016.7 mb)
Winds:from the NNW (340 degrees) at 5 MPH (4 knots; 2.1 m/s)
Visibility: 3 sm ( 5 km)
Ceiling:500 feet AGL
Clouds: overcast cloud deck at 500 feet AGL
QC Flag:automated observation with no human augmentation
Text:KEDU 051015Z AUTO 04003KT 3SM OVC004 11/11 A3002 RMK AO1
Temperature: 11.0°C ( 52°F)
Dewpoint: 11.0°C ( 52°F) [RH = 100%]
Pressure (altimeter):30.02 inches Hg (1016.7 mb)
Winds:from the NE (40 degrees) at 3 MPH (3 knots; 1.5 m/s)
Visibility: 3 sm ( 5 km)
Ceiling:400 feet AGL
Clouds: overcast cloud deck at 400 feet AGL
QC Flag:automated observation with no human augmentation
Text:KEDU 050955Z AUTO 00000KT 2 1/2SM OVC005 11/11 A3002 RMK AO1
Temperature: 11.0°C ( 52°F)
Dewpoint: 11.0°C ( 52°F) [RH = 100%]
Pressure (altimeter):30.02 inches Hg (1016.7 mb)
Winds:calm
Visibility: 2.50 sm ( 4.02 km)
Ceiling:500 feet AGL
Clouds: overcast cloud deck at 500 feet AGL
QC Flag:automated observation with no human augmentation
Text:KEDU 050935Z AUTO 00000KT 2 1/2SM OVC005 11/11 A3002 RMK AO1
Temperature: 11.0°C ( 52°F)
Dewpoint: 11.0°C ( 52°F) [RH = 100%]
Pressure (altimeter):30.02 inches Hg (1016.7 mb)
Winds:calm
Visibility: 2.50 sm ( 4.02 km)
Ceiling:500 feet AGL
Clouds: overcast cloud deck at 500 feet AGL
QC Flag:automated observation with no human augmentation